Time;durP1;ratioP1;P1;durP2;ratioP2;P2;SDS_P1;SDS_P2;PMS_P1;PMS_P2;Temp;Humidity;BMP_temperature;BMP_pressure;BME280_temperature;BME280_humidity;BME280_pressure;Samples;Min_cycle;Max_cycle;Signal;HPM_P1;HPM_P2
2021/07/25 00:01:45;;;;;;;;;;;;;;;-142.75;78.42;76119.53;5083041;28;19916;-77
2021/07/25 00:04:10;;;;;;;;;;;;;;;-142.75;78.32;76141.19;5075138;28;19924;-77
2021/07/25 00:06:35;;;;;;;;;;;;;;;-142.75;78.87;76143.16;5075774;28;19926;-77
2021/07/25 00:09:00;;;;;;;;;;;;;;;-142.75;79.75;76145.13;5082227;28;21533;-77
2021/07/25 00:11:26;;;;;;;;;;;;;;;-142.75;81.05;76141.19;5090477;28;19942;-77
2021/07/25 00:13:52;;;;;;;;;;;;;;;-142.75;82.42;76127.41;5087916;28;19924;-77
2021/07/25 00:16:18;;;;;;;;;;;;;;;-142.75;82.55;76123.47;5083171;28;19920;-77
2021/07/25 00:18:43;;;;;;;;;;;;;;;-142.75;82.36;76129.38;5070156;28;20003;-77
2021/07/25 00:21:09;;;;;;;;;;;;;;;-142.75;82.30;76135.28;5070942;28;20017;-77
2021/07/25 00:23:35;;;;;;;;;;;;;;;-142.75;82.33;76139.22;5082796;28;19916;-77
2021/07/25 00:26:00;;;;;;;;;;;;;;;-142.75;82.91;76119.53;5094056;28;19920;-78
2021/07/25 00:28:35;;;;;;;;;;;;;;;-142.75;82.96;76117.56;5094414;28;20289;-78
2021/07/25 00:31:04;;;;;;;;;;;;;;;-142.75;82.81;76107.72;5076044;28;19916;-77
2021/07/25 00:33:30;;;;;;;;;;;;;;;-142.75;82.76;76107.72;5083583;28;19923;-77
2021/07/25 00:35:55;;;;;;;;;;;;;;;-142.75;82.72;76105.75;5073202;28;20040;-77
2021/07/25 00:38:20;;;;;;;;;;;;;;;-142.75;82.65;76103.78;5073686;28;19970;-77
2021/07/25 00:40:47;;;;;;;;;;;;;;;-142.75;82.57;76101.81;5074184;28;19916;-77
2021/07/25 00:43:25;;;;;;;;;;;;;;;-142.75;82.55;76097.88;5082916;28;19916;-77
2021/07/25 00:45:50;;;;;;;;;;;;;;;-142.75;82.44;76091.97;5078449;28;19967;-77
2021/07/25 00:48:17;;;;;;;;;;;;;;;-142.75;82.32;76090.00;5074546;28;19920;-77
2021/07/25 00:53:26;;;;;;;;;;;;;;;-142.75;82.20;76091.97;5094662;28;20011;-77
2021/07/25 00:55:52;;;;;;;;;;;;;;;-142.75;82.19;76082.13;5094594;28;20365;-77
2021/07/25 00:58:17;;;;;;;;;;;;;;;-142.75;82.14;76086.06;5079867;28;20003;-77
2021/07/25 01:00:43;;;;;;;;;;;;;;;-142.75;82.09;76090.00;5093562;28;20365;-79
2021/07/25 01:03:22;;;;;;;;;;;;;;;-142.75;82.21;76078.19;5095355;28;19920;-83
2021/07/25 01:05:56;;;;;;;;;;;;;;;-142.75;82.35;76066.41;5094722;28;19959;-82
2021/07/25 01:08:27;;;;;;;;;;;;;;;-142.75;82.33;76060.50;5092971;28;20380;-85
2021/07/25 01:10:53;;;;;;;;;;;;;;;-142.75;82.30;76054.59;5093128;28;19916;-85
2021/07/25 01:13:23;;;;;;;;;;;;;;;-142.75;82.28;76054.59;5089470;28;19924;-82
2021/07/25 01:15:48;;;;;;;;;;;;;;;-142.75;82.16;76052.63;5075644;28;19927;-84
2021/07/25 01:18:13;;;;;;;;;;;;;;;-142.75;82.14;76046.72;5075524;28;20381;-84
2021/07/25 01:20:38;;;;;;;;;;;;;;;-142.75;82.12;76054.59;5073111;28;19986;-83
2021/07/25 01:23:03;;;;;;;;;;;;;;;-142.75;82.02;76048.69;5084533;28;19916;-84
2021/07/25 01:25:29;;;;;;;;;;;;;;;-142.75;81.90;76042.78;5079464;28;20306;-84
2021/07/25 01:28:07;;;;;;;;;;;;;;;-142.75;81.90;76038.84;5076940;28;19938;-83
2021/07/25 01:30:34;;;;;;;;;;;;;;;-142.75;81.85;76038.84;5094618;28;19963;-84
2021/07/25 01:33:02;;;;;;;;;;;;;;;-142.75;81.84;76040.81;5093982;28;20369;-81
2021/07/25 01:35:29;;;;;;;;;;;;;;;-142.75;81.73;76044.75;5084396;28;20425;-83
2021/07/25 01:37:55;;;;;;;;;;;;;;;-142.75;81.64;76054.59;5085446;28;19924;-84
2021/07/25 01:40:24;;;;;;;;;;;;;;;-142.75;81.63;76052.63;5076472;28;19916;-82
2021/07/25 01:42:49;;;;;;;;;;;;;;;-142.75;81.57;76058.53;5081405;28;20311;-83
2021/07/25 01:45:15;;;;;;;;;;;;;;;-142.75;81.54;76064.44;5082420;28;20054;-84
2021/07/25 01:47:40;;;;;;;;;;;;;;;-142.75;81.47;76066.41;5091813;28;20297;-82
2021/07/25 01:50:06;;;;;;;;;;;;;;;-142.75;81.34;76074.25;5079617;28;20409;-83
2021/07/25 01:52:31;;;;;;;;;;;;;;;-142.75;81.22;76074.25;5074381;28;19916;-82
2021/07/25 01:54:56;;;;;;;;;;;;;;;-142.75;81.21;76074.25;5089856;28;19916;-82
2021/07/25 01:57:22;;;;;;;;;;;;;;;-142.75;81.23;76066.41;5084444;28;19924;-82
2021/07/25 01:59:47;;;;;;;;;;;;;;;-142.75;81.14;76070.34;5074266;28;19923;-80
2021/07/25 02:02:12;;;;;;;;;;;;;;;-142.75;81.06;76068.38;5073861;28;19924;-83
2021/07/25 02:04:37;;;;;;;;;;;;;;;-142.75;80.91;76070.34;5074194;28;19927;-83
2021/07/25 02:07:04;;;;;;;;;;;;;;;-142.75;80.95;76070.34;5073667;28;20019;-84
2021/07/25 02:09:29;;;;;;;;;;;;;;;-142.75;80.93;76070.34;5074558;28;20547;-82
2021/07/25 02:11:54;;;;;;;;;;;;;;;-142.75;80.75;76066.41;5073938;28;20003;-84
2021/07/25 02:14:19;;;;;;;;;;;;;;;-142.75;80.75;76070.34;5071682;28;19969;-82
2021/07/25 02:16:45;;;;;;;;;;;;;;;-142.75;80.75;76074.25;5073065;28;19916;-83
2021/07/25 02:19:10;;;;;;;;;;;;;;;-142.75;80.80;76080.16;5077710;28;19972;-83
2021/07/25 02:21:35;;;;;;;;;;;;;;;-142.75;80.78;76086.06;5087875;28;19955;-85
2021/07/25 02:24:00;;;;;;;;;;;;;;;-142.75;80.91;76082.13;5085840;28;19946;-82
2021/07/25 02:26:25;;;;;;;;;;;;;;;-142.75;81.10;76070.34;5089338;28;19929;-82
2021/07/25 02:28:51;;;;;;;;;;;;;;;-142.75;81.22;76062.47;5081024;28;19916;-80
2021/07/25 02:31:16;;;;;;;;;;;;;;;-142.75;81.14;76064.44;5080527;28;19947;-82
2021/07/25 02:33:41;;;;;;;;;;;;;;;-142.75;80.99;76066.41;5081589;28;20007;-82
2021/07/25 02:36:06;;;;;;;;;;;;;;;-142.75;80.85;76066.41;5086342;28;20002;-82
2021/07/25 02:38:31;;;;;;;;;;;;;;;-142.75;80.73;76068.38;5090738;28;19922;-81
2021/07/25 02:40:56;;;;;;;;;;;;;;;-142.75;80.63;76076.22;5086000;28;19916;-83
2021/07/25 02:43:22;;;;;;;;;;;;;;;-142.75;80.66;76088.03;5082605;28;19964;-82
2021/07/25 02:45:47;;;;;;;;;;;;;;;-142.75;80.82;76093.94;5085742;28;20007;-80
2021/07/25 02:48:12;;;;;;;;;;;;;;;-142.75;80.81;76101.81;5083667;28;19924;-81
2021/07/25 02:50:37;;;;;;;;;;;;;;;-142.75;81.17;76099.84;5096066;28;19920;-85
2021/07/25 02:53:02;;;;;;;;;;;;;;;-142.75;81.38;76097.88;5096888;28;20278;-84
2021/07/25 02:55:28;;;;;;;;;;;;;;;-142.75;81.48;76097.88;5096946;28;19920;-83
2021/07/25 02:57:53;;;;;;;;;;;;;;;-142.75;81.63;76093.94;5081846;28;19932;-81
2021/07/25 03:00:18;;;;;;;;;;;;;;;-142.75;81.67;76088.03;5090085;28;19970;-82
2021/07/25 03:02:43;;;;;;;;;;;;;;;-142.75;81.75;76095.91;5076296;28;20283;-82
2021/07/25 03:05:09;;;;;;;;;;;;;;;-142.75;81.66;76099.84;5078639;28;19993;-83
2021/07/25 03:07:34;;;;;;;;;;;;;;;-142.75;81.71;76101.81;5092538;28;19923;-84
2021/07/25 03:09:59;;;;;;;;;;;;;;;-142.75;81.60;76101.81;5097040;28;19970;-82
2021/07/25 03:12:24;;;;;;;;;;;;;;;-142.75;81.55;76101.81;5093944;28;19924;-84
2021/07/25 03:14:50;;;;;;;;;;;;;;;-142.75;81.62;76101.81;5075461;28;19921;-79
2021/07/25 03:17:15;;;;;;;;;;;;;;;-142.75;81.52;76105.75;5074686;28;20368;-83
2021/07/25 03:19:40;;;;;;;;;;;;;;;-142.75;81.63;76093.94;5090845;28;19983;-82
2021/07/25 03:22:08;;;;;;;;;;;;;;;-142.75;81.52;76090.00;5094221;28;19916;-84
2021/07/25 03:24:34;;;;;;;;;;;;;;;-142.75;81.51;76090.00;5073910;28;19917;-84
2021/07/25 03:26:59;;;;;;;;;;;;;;;-142.75;81.41;76093.94;5074118;28;19924;-83
2021/07/25 03:29:24;;;;;;;;;;;;;;;-142.75;81.44;76097.88;5078082;28;20003;-84
2021/07/25 03:31:49;;;;;;;;;;;;;;;-142.75;81.44;76093.94;5073171;28;20286;-83
2021/07/25 03:34:15;;;;;;;;;;;;;;;-142.75;81.49;76093.94;5080990;28;19916;-83
2021/07/25 03:36:42;;;;;;;;;;;;;;;-142.75;81.45;76095.91;5072127;28;19917;-81
2021/07/25 03:39:10;;;;;;;;;;;;;;;-142.75;81.53;76099.84;5090581;28;20381;-82
2021/07/25 03:41:35;;;;;;;;;;;;;;;-142.75;81.42;76097.88;5090666;28;20301;-84
2021/07/25 03:44:00;;;;;;;;;;;;;;;-142.75;81.51;76086.06;5086255;28;19916;-83
2021/07/25 03:46:25;;;;;;;;;;;;;;;-142.75;81.49;76082.13;5083908;28;19928;-83
2021/07/25 03:48:51;;;;;;;;;;;;;;;-142.75;81.42;76086.06;5078989;28;19938;-83
2021/07/25 03:51:16;;;;;;;;;;;;;;;-142.75;81.41;76080.16;5080530;28;19916;-84
2021/07/25 03:53:41;;;;;;;;;;;;;;;-142.75;81.24;76095.91;5084252;28;19916;-83
2021/07/25 03:56:06;;;;;;;;;;;;;;;-142.75;81.24;76099.84;5074868;28;19917;-84
2021/07/25 03:58:31;;;;;;;;;;;;;;;-142.75;81.15;76099.84;5086931;28;19919;-83
2021/07/25 04:00:57;;;;;;;;;;;;;;;-142.75;81.14;76095.91;5083696;28;19955;-84
2021/07/25 04:03:22;;;;;;;;;;;;;;;-142.75;81.02;76099.84;5072670;28;20386;-82
2021/07/25 04:05:47;;;;;;;;;;;;;;;-142.75;81.01;76101.81;5075500;28;19929;-83
2021/07/25 04:08:12;;;;;;;;;;;;;;;-142.75;81.04;76099.84;5085080;28;20385;-81
2021/07/25 04:10:38;;;;;;;;;;;;;;;-142.75;81.13;76093.94;5081525;28;19927;-83
2021/07/25 04:13:03;;;;;;;;;;;;;;;-142.75;81.14;76097.88;5081750;28;19969;-84
2021/07/25 04:15:28;;;;;;;;;;;;;;;-142.75;81.21;76090.00;5083985;28;19931;-83
2021/07/25 04:17:54;;;;;;;;;;;;;;;-142.75;81.19;76095.91;5075359;28;20429;-81
2021/07/25 04:20:19;;;;;;;;;;;;;;;-142.75;81.21;76086.06;5084426;28;19923;-80
2021/07/25 04:22:44;;;;;;;;;;;;;;;-142.75;81.04;76082.13;5085232;28;19923;-84
2021/07/25 04:25:09;;;;;;;;;;;;;;;-142.75;80.72;76086.06;5083882;28;19920;-82
2021/07/25 04:27:35;;;;;;;;;;;;;;;-142.75;80.54;76090.00;5077188;28;19922;-82
2021/07/25 04:30:00;;;;;;;;;;;;;;;-142.75;80.36;76097.88;5086232;28;19927;-83
2021/07/25 04:32:25;;;;;;;;;;;;;;;-142.75;80.11;76101.81;5091821;28;19979;-83
2021/07/25 04:34:51;;;;;;;;;;;;;;;-142.75;80.06;76103.78;5090487;28;19917;-83
2021/07/25 04:37:25;;;;;;;;;;;;;;;-142.75;80.11;76101.81;5073607;28;20035;-82
2021/07/25 04:39:51;;;;;;;;;;;;;;;-142.75;80.10;76099.84;5074027;28;19946;-83
2021/07/25 04:42:17;;;;;;;;;;;;;;;-142.75;80.08;76101.81;5080395;28;19916;-82
2021/07/25 04:44:46;;;;;;;;;;;;;;;-142.75;79.98;76101.81;5085081;28;20270;-82
2021/07/25 04:47:16;;;;;;;;;;;;;;;-142.75;79.81;76109.69;5093284;28;20003;-83
2021/07/25 04:49:45;;;;;;;;;;;;;;;-142.75;79.80;76101.81;5081598;28;20308;-83
2021/07/25 04:52:11;;;;;;;;;;;;;;;-142.75;79.77;76097.88;5091521;28;20373;-82
2021/07/25 04:54:38;;;;;;;;;;;;;;;-142.75;79.78;76099.84;5082364;28;19939;-81
2021/07/25 04:57:05;;;;;;;;;;;;;;;-142.75;79.81;76097.88;5077731;28;19938;-83
2021/07/25 04:59:31;;;;;;;;;;;;;;;-142.75;79.86;76097.88;5076446;28;20460;-83
2021/07/25 05:02:08;;;;;;;;;;;;;;;-142.75;79.72;76101.81;5082215;28;19951;-81
2021/07/25 05:04:34;;;;;;;;;;;;;;;-142.75;79.63;76097.88;5092510;28;19916;-82
2021/07/25 05:06:59;;;;;;;;;;;;;;;-142.75;79.50;76097.88;5080760;28;19963;-82
2021/07/25 05:09:25;;;;;;;;;;;;;;;-142.75;79.50;76097.88;5097937;28;19916;-81
2021/07/25 05:11:52;;;;;;;;;;;;;;;-142.75;79.60;76101.81;5086169;28;20290;-81
2021/07/25 05:14:30;;;;;;;;;;;;;;;-142.75;79.65;76105.75;5091915;28;19924;-81
2021/07/25 05:17:14;;;;;;;;;;;;;;;-142.75;79.49;76101.81;5084423;28;19916;-81
2021/07/25 05:19:53;;;;;;;;;;;;;;;-142.75;79.43;76109.69;5096159;28;19962;-81
2021/07/25 05:22:21;;;;;;;;;;;;;;;-142.75;79.33;76101.81;5098190;28;19920;-81
2021/07/25 05:24:46;;;;;;;;;;;;;;;-142.75;79.41;76105.75;5082191;28;19938;-81
2021/07/25 05:27:17;;;;;;;;;;;;;;;-142.75;79.41;76097.88;5095985;28;19975;-80
2021/07/25 05:29:42;;;;;;;;;;;;;;;-142.75;79.44;76093.94;5089851;28;19995;-79
2021/07/25 05:32:07;;;;;;;;;;;;;;;-142.75;79.41;76093.94;5099368;28;19965;-81
2021/07/25 05:34:32;;;;;;;;;;;;;;;-142.75;79.36;76074.25;5094301;28;20313;-80
2021/07/25 05:36:58;;;;;;;;;;;;;;;-142.75;79.36;76050.66;5086566;28;19946;-79
2021/07/25 05:39:23;;;;;;;;;;;;;;;-142.75;78.94;76032.94;5098047;28;19979;-79
2021/07/25 05:41:48;;;;;;;;;;;;;;;-142.75;77.62;76005.38;5086779;28;19920;-80
2021/07/25 05:44:13;;;;;;;;;;;;;;;-142.75;77.11;75997.50;5097571;22;19924;-79
2021/07/25 05:46:38;;;;;;;;;;;;;;;-142.75;76.77;75987.66;5074829;28;20298;-79
2021/07/25 05:49:04;;;;;;;;;;;;;;;-142.75;75.98;75983.72;5079106;28;20400;-80
2021/07/25 05:51:29;;;;;;;;;;;;;;;-142.75;75.15;75987.66;5087324;28;20012;-79
2021/07/25 05:53:54;;;;;;;;;;;;;;;-142.75;74.66;75991.59;5072618;28;19924;-78
2021/07/25 05:56:19;;;;;;;;;;;;;;;-142.75;74.39;75981.75;5069998;28;19962;-78
2021/07/25 05:58:44;;;;;;;;;;;;;;;-142.75;74.35;75956.19;5064420;28;20374;-79
2021/07/25 06:01:09;;;;;;;;;;;;;;;-142.75;74.66;75922.72;5053254;28;19917;-79
2021/07/25 06:03:35;;;;;;;;;;;;;;;-142.75;74.17;75893.19;5057960;28;19924;-79
2021/07/25 06:06:00;;;;;;;;;;;;;;;-142.75;72.36;75845.97;5070189;28;20344;-80
2021/07/25 06:08:25;;;;;;;;;;;;;;;-142.75;70.71;75798.72;5062808;28;19923;-79
2021/07/25 06:10:50;;;;;;;;;;;;;;;-142.75;69.55;75745.59;5071779;28;19932;-79
2021/07/25 06:13:15;;;;;;;;;;;;;;;-142.75;68.83;75702.28;5058043;28;19923;-79
2021/07/25 06:15:41;;;;;;;;;;;;;;;-142.75;69.29;75688.50;5064605;28;19966;-79
2021/07/25 06:18:07;;;;;;;;;;;;;;;-142.75;68.79;75694.41;5060483;28;19970;-79
2021/07/25 06:20:32;;;;;;;;;;;;;;;-142.75;68.79;75714.09;5060334;28;19916;-79
2021/07/25 06:22:58;;;;;;;;;;;;;;;-142.75;69.43;75720.00;5058961;28;19917;-79
2021/07/25 06:25:24;;;;;;;;;;;;;;;-142.75;69.19;75723.94;5065423;28;19998;-79
2021/07/25 06:27:51;;;;;;;;;;;;;;;-142.75;69.68;75727.88;5052672;28;20336;-79
2021/07/25 06:30:17;;;;;;;;;;;;;;;-142.75;70.10;75712.13;5053098;28;19923;-81
2021/07/25 06:33:11;;;;;;;;;;;;;;;-142.75;69.20;75690.47;5069443;28;19916;-80
2021/07/25 06:35:38;;;;;;;;;;;;;;;-142.75;67.06;75629.47;5044081;28;19923;-80
2021/07/25 06:38:05;;;;;;;;;;;;;;;-142.75;67.41;75562.56;5058475;28;19923;-79
2021/07/25 06:40:30;;;;;;;;;;;;;;;-142.75;65.35;75493.69;5065136;28;19943;-78
2021/07/25 06:42:56;;;;;;;;;;;;;;;-142.75;64.72;75401.19;5069501;28;19924;-80
2021/07/25 06:45:21;;;;;;;;;;;;;;;-142.75;61.54;75346.09;5057756;28;19925;-79
2021/07/25 06:47:47;;;;;;;;;;;;;;;-142.75;58.25;75298.84;5060197;28;20503;-78
2021/07/25 06:50:12;;;;;;;;;;;;;;;-142.75;57.72;75287.06;5054107;28;20381;-79
2021/07/25 06:52:38;;;;;;;;;;;;;;;-142.75;58.20;75259.50;5069484;28;19955;-79
2021/07/25 06:55:04;;;;;;;;;;;;;;;-142.75;57.20;75287.06;5054383;28;20015;-79
2021/07/25 06:57:29;;;;;;;;;;;;;;;-142.75;57.61;75283.13;5062175;28;20424;-80
2021/07/25 06:59:54;;;;;;;;;;;;;;;-142.75;57.28;75180.78;5060114;28;19963;-79
2021/07/25 07:02:19;;;;;;;;;;;;;;;-142.75;57.12;75117.81;5066827;28;19917;-78
2021/07/25 07:04:44;;;;;;;;;;;;;;;-142.75;54.16;75066.66;5052347;28;19969;-80
2021/07/25 07:07:10;;;;;;;;;;;;;;;-142.75;56.07;75086.34;5068047;28;20381;-80
2021/07/25 07:09:35;;;;;;;;;;;;;;;-142.75;53.05;75031.25;5070313;28;19924;-80
2021/07/25 07:12:00;;;;;;;;;;;;;;;-142.75;52.11;74985.97;5069011;28;19927;-79
2021/07/25 07:14:25;;;;;;;;;;;;;;;-142.75;53.79;74980.06;5066901;28;20368;-80
2021/07/25 07:16:50;;;;;;;;;;;;;;;-142.75;51.90;75015.50;5070313;28;19920;-80
2021/07/25 07:19:16;;;;;;;;;;;;;;;-142.75;54.06;74976.16;5070234;28;20011;-79
2021/07/25 07:21:41;;;;;;;;;;;;;;;-142.75;52.90;74952.53;5078801;28;19916;-81
2021/07/25 07:24:06;;;;;;;;;;;;;;;-142.75;52.28;74950.56;5054329;28;20286;-80
2021/07/25 07:26:31;;;;;;;;;;;;;;;-142.75;53.40;74944.66;5066092;28;19943;-80
2021/07/25 07:28:56;;;;;;;;;;;;;;;-142.75;49.95;74901.38;5068672;28;19924;-80
2021/07/25 07:31:22;;;;;;;;;;;;;;;-142.75;50.11;74814.78;5067822;28;19955;-80
2021/07/25 07:33:47;;;;;;;;;;;;;;;-142.75;48.94;74785.28;5053731;28;20409;-79
2021/07/25 07:36:12;;;;;;;;;;;;;;;-142.75;48.56;74775.44;5056329;28;19917;-79
2021/07/25 07:38:37;;;;;;;;;;;;;;;-142.75;48.77;74708.53;5063661;28;20362;-81
2021/07/25 07:41:02;;;;;;;;;;;;;;;-142.75;48.81;74653.47;5060208;28;19917;-79
2021/07/25 07:43:28;;;;;;;;;;;;;;;-142.75;45.15;74600.34;5053652;28;19917;-80
2021/07/25 07:45:53;;;;;;;;;;;;;;;-142.75;45.68;74523.59;5059263;28;19951;-80
2021/07/25 07:48:19;;;;;;;;;;;;;;;-142.75;45.24;74537.38;5061417;28;19916;-79
2021/07/25 07:50:44;;;;;;;;;;;;;;;-142.75;44.24;74515.72;5061133;28;20430;-80
2021/07/25 07:53:09;;;;;;;;;;;;;;;-142.75;44.64;74476.38;5058372;28;19924;-80
2021/07/25 07:55:35;;;;;;;;;;;;;;;-142.75;43.89;74415.38;5065468;28;19932;-79
2021/07/25 07:58:00;;;;;;;;;;;;;;;-142.75;42.39;74366.22;5054684;28;19928;-80
2021/07/25 08:00:25;;;;;;;;;;;;;;;-142.75;42.87;74488.19;5062908;28;19917;-79
2021/07/25 08:02:50;;;;;;;;;;;;;;;-142.75;41.71;74336.69;5060132;28;19927;-79
2021/07/25 08:05:18;;;;;;;;;;;;;;;-142.75;42.19;74566.88;5060581;28;19967;-79
2021/07/25 08:07:44;;;;;;;;;;;;;;;-142.75;44.70;74519.66;5063938;28;19917;-79
2021/07/25 08:10:09;;;;;;;;;;;;;;;-142.75;43.79;74525.56;5069126;28;20019;-80
2021/07/25 08:12:35;;;;;;;;;;;;;;;-142.75;41.99;74454.75;5059875;28;20390;-80
2021/07/25 08:15:00;;;;;;;;;;;;;;;-142.75;42.11;74401.63;5056529;28;20375;-81
2021/07/25 08:17:26;;;;;;;;;;;;;;;-142.75;41.71;74348.50;5061147;28;19963;-81
2021/07/25 08:19:51;;;;;;;;;;;;;;;-142.75;41.35;74348.50;5061899;28;19920;-79
2021/07/25 08:22:16;;;;;;;;;;;;;;;-142.75;41.90;74350.47;5055053;28;19924;-79
2021/07/25 08:24:41;;;;;;;;;;;;;;;-142.75;41.38;74340.63;5064460;28;20297;-82
2021/07/25 08:27:07;;;;;;;;;;;;;;;-142.75;41.91;74409.50;5064815;28;19920;-80
2021/07/25 08:29:32;;;;;;;;;;;;;;;-142.75;41.95;74433.09;5064546;28;19917;-81
2021/07/25 08:32:00;;;;;;;;;;;;;;;-142.75;39.90;74462.59;5058161;28;19960;-82
2021/07/25 08:34:26;;;;;;;;;;;;;;;-142.75;42.48;74553.13;5054880;28;19925;-80
2021/07/25 08:36:51;;;;;;;;;;;;;;;-142.75;43.18;74539.34;5060243;28;20306;-80
2021/07/25 08:39:17;;;;;;;;;;;;;;;-142.75;43.72;74560.97;5059230;28;19916;-81
2021/07/25 08:41:48;;;;;;;;;;;;;;;-142.75;43.37;74606.22;5056825;28;20405;-81
2021/07/25 08:44:25;;;;;;;;;;;;;;;-142.75;44.42;74779.38;5063745;28;19996;-80
2021/07/25 08:46:53;;;;;;;;;;;;;;;-142.75;46.35;74889.56;5060147;28;20344;-80
2021/07/25 08:49:24;;;;;;;;;;;;;;;-142.75;46.26;74761.66;5063536;28;19935;-79
2021/07/25 08:51:54;;;;;;;;;;;;;;;-142.75;45.75;74738.06;5055950;28;20437;-80
2021/07/25 08:54:38;;;;;;;;;;;;;;;-142.75;45.97;74714.44;5063589;28;20301;-80
2021/07/25 08:57:05;;;;;;;;;;;;;;;-142.75;46.35;74696.75;5061992;28;19928;-81
2021/07/25 08:59:33;;;;;;;;;;;;;;;-142.75;44.23;74665.25;5059395;28;19916;-82
2021/07/25 09:02:00;;;;;;;;;;;;;;;-142.75;44.67;74661.31;5067419;28;19916;-79
2021/07/25 09:04:25;;;;;;;;;;;;;;;-142.75;44.99;74543.28;5058467;28;19916;-80
2021/07/25 09:06:51;;;;;;;;;;;;;;;-142.75;42.47;74413.44;5059043;28;19924;-81
2021/07/25 09:09:17;;;;;;;;;;;;;;;-142.75;39.50;74358.34;5068078;28;19963;-80
2021/07/25 09:11:43;;;;;;;;;;;;;;;-142.75;39.68;74348.50;5066122;28;19916;-80
2021/07/25 09:14:08;;;;;;;;;;;;;;;-142.75;39.86;74303.25;5065336;28;20293;-80
2021/07/25 09:16:34;;;;;;;;;;;;;;;-142.75;40.18;74185.22;5069524;28;19916;-80
2021/07/25 09:19:00;;;;;;;;;;;;;;;-142.75;38.01;74082.91;5060476;28;19917;-79
2021/07/25 09:21:42;;;;;;;;;;;;;;;-142.75;36.19;74016.03;5064186;28;20088;-79
2021/07/25 09:24:19;;;;;;;;;;;;;;;-142.75;35.45;73986.53;5066345;28;19916;-79
2021/07/25 09:26:59;;;;;;;;;;;;;;;-142.75;35.04;73937.34;5063171;28;19928;-80
2021/07/25 09:29:35;;;;;;;;;;;;;;;-142.75;34.65;73984.56;5068351;28;19960;-81
2021/07/25 09:32:11;;;;;;;;;;;;;;;-142.75;35.80;73958.97;5068191;28;19924;-79
2021/07/25 09:34:37;;;;;;;;;;;;;;;-142.75;33.27;73915.69;5070462;28;19924;-81
2021/07/25 09:37:05;;;;;;;;;;;;;;;-142.75;33.14;73856.69;5060942;28;19917;-78
2021/07/25 09:39:38;;;;;;;;;;;;;;;-142.75;32.46;73925.53;5067813;28;19923;-80
2021/07/25 09:42:03;;;;;;;;;;;;;;;-142.75;34.81;73953.06;5070053;28;19917;-79
2021/07/25 09:44:43;;;;;;;;;;;;;;;-142.75;34.12;73937.34;5065424;28;19922;-80
2021/07/25 09:47:08;;;;;;;;;;;;;;;-142.75;33.08;74187.19;5058298;28;19924;-78
2021/07/25 09:49:42;;;;;;;;;;;;;;;-142.75;34.42;74039.63;5067718;28;19971;-78
2021/07/25 09:52:08;;;;;;;;;;;;;;;-142.75;33.88;73921.59;5062002;28;19916;-78
2021/07/25 09:54:33;;;;;;;;;;;;;;;-142.75;31.39;73837.00;5074840;28;19927;-80
2021/07/25 09:57:08;;;;;;;;;;;;;;;-142.75;31.88;73860.63;5067938;28;20341;-79
2021/07/25 09:59:35;;;;;;;;;;;;;;;-142.75;31.95;73819.31;5067490;28;20030;-79
2021/07/25 10:02:00;;;;;;;;;;;;;;;-142.75;30.75;73799.63;5065895;28;20401;-78
2021/07/25 10:04:26;;;;;;;;;;;;;;;-142.75;32.67;73874.38;5065214;28;19917;-78
2021/07/25 10:06:52;;;;;;;;;;;;;;;-142.75;31.11;73850.78;5060244;28;19932;-79
2021/07/25 10:09:18;;;;;;;;;;;;;;;-142.75;30.49;73778.00;5063553;28;19917;-79
2021/07/25 10:11:48;;;;;;;;;;;;;;;-142.75;32.72;74080.94;5059324;28;19916;-78
2021/07/25 10:14:18;;;;;;;;;;;;;;;-142.75;33.91;74035.69;5059935;28;19917;-78
2021/07/25 10:16:44;;;;;;;;;;;;;;;-142.75;32.43;73964.88;5056544;28;20358;-77
2021/07/25 10:19:09;;;;;;;;;;;;;;;-142.75;32.53;73992.41;5059504;28;19916;-78
2021/07/25 10:21:36;;;;;;;;;;;;;;;-142.75;33.30;73970.78;5060085;28;20004;-77
2021/07/25 10:24:12;;;;;;;;;;;;;;;-142.75;34.01;74041.59;5063699;28;19921;-77
2021/07/25 10:26:37;;;;;;;;;;;;;;;-142.75;32.69;73937.34;5056507;28;19921;-75
2021/07/25 10:29:05;;;;;;;;;;;;;;;-142.75;33.21;73998.31;5062196;28;20392;-77
2021/07/25 10:31:32;;;;;;;;;;;;;;;-142.75;35.36;74116.34;5055915;28;19916;-75
2021/07/25 10:34:01;;;;;;;;;;;;;;;-142.75;35.12;74165.53;5062264;28;19970;-76
2021/07/25 10:36:26;;;;;;;;;;;;;;;-142.75;36.08;74206.84;5057004;28;19924;-76
2021/07/25 10:38:52;;;;;;;;;;;;;;;-142.75;36.27;74295.38;5064730;28;20298;-77
2021/07/25 10:41:34;;;;;;;;;;;;;;;-142.75;36.74;74326.84;5064998;28;19917;-77
2021/07/25 10:44:00;;;;;;;;;;;;;;;-142.75;38.90;74440.97;5068069;28;20041;-77
2021/07/25 10:46:25;;;;;;;;;;;;;;;-142.75;37.92;74385.88;5056882;28;19929;-78
2021/07/25 10:49:09;;;;;;;;;;;;;;;-142.75;37.47;74197.00;5071097;28;19935;-76
2021/07/25 10:51:35;;;;;;;;;;;;;;;-142.75;33.08;74090.78;5064694;28;19923;-76
2021/07/25 10:54:19;;;;;;;;;;;;;;;-142.75;33.52;73972.75;5072827;28;19917;-77
2021/07/25 10:57:17;;;;;;;;;;;;;;;-142.75;34.49;74039.63;5059839;28;19916;-77
2021/07/25 10:59:50;;;;;;;;;;;;;;;-142.75;32.93;74031.75;5028533;28;19923;-77
2021/07/25 11:02:21;;;;;;;;;;;;;;;-142.75;36.19;74346.53;5060453;28;20374;-77
2021/07/25 11:04:55;;;;;;;;;;;;;;;-142.75;35.54;74295.38;5056098;28;19924;-76
2021/07/25 11:07:24;;;;;;;;;;;;;;;-142.75;32.94;74114.38;5063929;28;19927;-77
2021/07/25 11:10:11;;;;;;;;;;;;;;;-142.75;33.18;74047.50;5058773;28;19959;-76
2021/07/25 11:12:52;;;;;;;;;;;;;;;-142.75;34.01;74228.50;5063770;28;19970;-75
2021/07/25 11:15:32;;;;;;;;;;;;;;;-142.75;34.60;74147.84;5056203;28;19925;-78
2021/07/25 11:18:08;;;;;;;;;;;;;;;-142.75;34.61;74281.59;5064011;28;19970;-77
2021/07/25 11:20:40;;;;;;;;;;;;;;;-142.75;32.32;74059.31;5069347;28;19960;-77
2021/07/25 11:23:10;;;;;;;;;;;;;;;-142.75;31.27;73968.81;5058161;28;19917;-78
2021/07/25 11:25:36;;;;;;;;;;;;;;;-142.75;31.01;73929.47;5060758;28;20386;-76
2021/07/25 11:28:02;;;;;;;;;;;;;;;-142.75;30.40;73939.31;5069805;28;19921;-78
2021/07/25 11:30:46;;;;;;;;;;;;;;;-142.75;30.08;74236.34;5066804;28;19963;-77
2021/07/25 11:33:30;;;;;;;;;;;;;;;-142.75;31.51;74185.22;5060901;28;19956;-76
2021/07/25 11:35:57;;;;;;;;;;;;;;;-142.75;31.40;74016.03;5064599;28;19917;-77
2021/07/25 11:38:22;;;;;;;;;;;;;;;-142.75;30.36;74075.03;5062847;28;19917;-77
2021/07/25 11:40:53;;;;;;;;;;;;;;;-142.75;33.85;74468.50;5060648;28;19928;-78
2021/07/25 11:43:18;;;;;;;;;;;;;;;-142.75;34.32;74354.41;5062044;28;19916;-76
2021/07/25 11:45:43;;;;;;;;;;;;;;;-142.75;33.31;74258.00;5102849;22;20023;-77
2021/07/25 11:48:18;;;;;;;;;;;;;;;-142.75;32.21;74169.47;5087971;28;19920;-78
2021/07/25 11:50:43;;;;;;;;;;;;;;;-142.75;33.66;74238.31;5085391;28;19979;-78
2021/07/25 11:53:09;;;;;;;;;;;;;;;-142.75;33.18;74128.16;5088494;28;20370;-77
2021/07/25 11:55:34;;;;;;;;;;;;;;;-142.75;31.91;74334.72;5065384;28;19924;-78
2021/07/25 11:58:12;;;;;;;;;;;;;;;-142.75;33.81;74258.00;5054552;28;19917;-76
2021/07/25 12:00:37;;;;;;;;;;;;;;;-142.75;32.91;74242.25;5059630;28;20291;-79
2021/07/25 12:03:02;;;;;;;;;;;;;;;-142.75;33.56;74242.25;5069883;28;19924;-78
2021/07/25 12:05:28;;;;;;;;;;;;;;;-142.75;32.99;74256.03;5057568;28;20658;-78
2021/07/25 12:07:53;;;;;;;;;;;;;;;-142.75;32.73;74236.34;5058065;28;20148;-77
2021/07/25 12:10:31;;;;;;;;;;;;;;;-142.75;33.69;74252.09;5068025;28;20370;-77
2021/07/25 12:13:06;;;;;;;;;;;;;;;-142.75;33.53;74275.72;5060623;28;19920;-77
2021/07/25 12:15:32;;;;;;;;;;;;;;;-142.75;35.36;74503.94;5073901;28;19958;-77
2021/07/25 12:17:57;;;;;;;;;;;;;;;-142.75;35.49;74730.19;5073033;28;20009;-76
2021/07/25 12:20:22;;;;;;;;;;;;;;;-142.75;37.31;74771.50;5072999;28;19927;-77
2021/07/25 12:22:48;;;;;;;;;;;;;;;-142.75;37.96;74854.16;5073230;28;19923;-77
2021/07/25 12:25:14;;;;;;;;;;;;;;;-142.75;38.14;74742.00;5071516;28;19932;-77
2021/07/25 12:27:39;;;;;;;;;;;;;;;-142.75;37.45;74814.78;5072290;28;19940;-78
2021/07/25 12:30:11;;;;;;;;;;;;;;;-142.75;37.89;74928.91;5061419;28;19944;-78
2021/07/25 12:32:37;;;;;;;;;;;;;;;-142.75;38.27;74911.22;5068970;28;19920;-77